Giraldilla — EA9863 — position and weather

sailwx.info

Track history (hours):
 
Tides and Currents Weather Stations Pressure Air Temp Water Temp Dewpoint Dewpoint Depression Visibility Wind Speed Wind Dir Waves Ship Positions

Giraldilla

Last reported at 2018-Mar-27 05:42 UTC. Time now 2018-Apr-24 12:14 UTC.
Position N 36°54' W 008°12'.
Warning: this ship's position is 28 days out of date.

Length 16 m.

Type: Sailing vessel. MMSI: 224120450.

Date/timePositionNaut miles runAvg speedWind from/ knotsBaromVisibWave heightAir tempDewpointWater temp
2018-Mar-27 05:42N 36°54' W 008°12'67 5.6
2018-Mar-26 17:36N 37°44' W 009°08'1 6.7
2018-Mar-26 17:30N 37°44' W 009°08'3 6.8
2018-Mar-26 17:00N 37°48' W 009°09'4 7.0
2018-Mar-26 16:30N 37°51' W 009°10'4 7.2
2018-Mar-26 16:00N 37°55' W 009°11'4 7.3
2018-Mar-26 15:30N 37°58' W 009°12'4 7.2
2018-Mar-26 15:00N 38°02' W 009°12'4 7.3
2018-Mar-26 14:30N 38°05' W 009°13'4 7.5
2018-Mar-26 13:59N 38°09' W 009°14'8 7.6
2018-Mar-26 12:53N 38°17' W 009°16'3 6.9
2018-Mar-26 12:27N 38°20' W 009°17'3 6.6
2018-Mar-26 11:55N 38°24' W 009°18'3 6.8
2018-Mar-26 11:30N 38°27' W 009°19'4 6.9
2018-Mar-26 10:58N 38°30' W 009°19'3 6.9
2018-Mar-26 10:29N 38°33' W 009°20'4 7.0
2018-Mar-26 09:58N 38°37' W 009°21'4 7.8
2018-Mar-26 09:29N 38°40' W 009°23'2 2.4
2018-Mar-26 08:46N 38°42' W 009°25'0 0.0
2018-Mar-26 08:28N 38°42' W 009°25'0 0.0
2018-Mar-26 07:43N 38°42' W 009°25'  
2018-Mar-23 23:32N 38°42' W 009°25'0 0.0
2018-Mar-23 23:08N 38°42' W 009°25'0 0.0
2018-Mar-23 22:44N 38°42' W 009°25'0 0.0
2018-Mar-23 22:14N 38°42' W 009°25'0 0.0
2018-Mar-23 21:56N 38°42' W 009°25'0 0.0
2018-Mar-22 16:44N 38°41' W 009°25'0 0.3
2018-Mar-22 16:18N 38°41' W 009°25'0 0.3
2018-Mar-22 15:52N 38°42' W 009°25'0 0.0
2018-Mar-22 15:19N 38°42' W 009°25'0 0.4
2018-Mar-22 14:57N 38°42' W 009°25'7 5.7
2018-Mar-22 13:48N 38°46' W 009°31'2 6.1
2018-Mar-22 13:30N 38°48' W 009°31'3 6.3
2018-Mar-22 13:00N 38°51' W 009°30'3 6.9
2018-Mar-22 12:30N 38°55' W 009°30'3 6.7
2018-Mar-22 12:00N 38°58' W 009°30'3 6.6
2018-Mar-22 11:30N 39°01' W 009°29'3 6.7
2018-Mar-22 11:00N 39°05' W 009°29'3 6.7
2018-Mar-22 10:30N 39°08' W 009°28'3 6.7
2018-Mar-22 10:00N 39°11' W 009°28'121 6.8
2018-Mar-21 16:09N 41°07' W 008°43'1 8.1
2018-Mar-21 16:00N 41°08' W 008°43'3 5.0
2018-Mar-21 15:28N 41°11' W 008°42'0 0.0
2018-Mar-21 14:55N 41°11' W 008°42'0 0.0
2018-Mar-20 18:59N 41°11' W 008°42'0 0.0
2018-Mar-20 18:27N 41°11' W 008°42'0 0.0
2018-Mar-20 17:57N 41°11' W 008°42'0 0.0
2018-Mar-20 17:30N 41°11' W 008°42'0 0.0
2018-Mar-20 11:17N 41°11' W 008°42'0 0.0
2018-Mar-20 07:48N 41°11' W 008°42'0 0.1
2018-Mar-20 07:30N 41°11' W 008°42'1 1.9
2018-Mar-20 06:59N 41°10' W 008°42'0 0.0
2018-Mar-20 06:30N 41°10' W 008°42'0 0.1
2018-Mar-20 05:58N 41°10' W 008°42'1 2.3
2018-Mar-20 05:30N 41°10' W 008°44'  
Track history (hours):
 
Tides and Currents Weather Stations Pressure Air Temp Water Temp Dewpoint Dewpoint Depression Visibility Wind Speed Wind Dir Waves Ship Positions

Giraldilla

Last reported at 2018-Mar-27 05:42 UTC. Time now 2018-Apr-24 12:14 UTC.
Position N 36°54' W 008°12'.
Warning: this ship's position is 28 days out of date.

Length 16 m.

Type: Sailing vessel. MMSI: 224120450.

Date/timePositionNaut miles runAvg speedWind from/ knotsBaromVisibWave heightAir tempDewpointWater temp
2018-Mar-27 05:42N 36°54' W 008°12'67 5.6
2018-Mar-26 17:36N 37°44' W 009°08'1 6.7
2018-Mar-26 17:30N 37°44' W 009°08'3 6.8
2018-Mar-26 17:00N 37°48' W 009°09'4 7.0
2018-Mar-26 16:30N 37°51' W 009°10'4 7.2
2018-Mar-26 16:00N 37°55' W 009°11'4 7.3
2018-Mar-26 15:30N 37°58' W 009°12'4 7.2
2018-Mar-26 15:00N 38°02' W 009°12'4 7.3
2018-Mar-26 14:30N 38°05' W 009°13'4 7.5
2018-Mar-26 13:59N 38°09' W 009°14'8 7.6
2018-Mar-26 12:53N 38°17' W 009°16'3 6.9
2018-Mar-26 12:27N 38°20' W 009°17'3 6.6
2018-Mar-26 11:55N 38°24' W 009°18'3 6.8
2018-Mar-26 11:30N 38°27' W 009°19'4 6.9
2018-Mar-26 10:58N 38°30' W 009°19'3 6.9
2018-Mar-26 10:29N 38°33' W 009°20'4 7.0
2018-Mar-26 09:58N 38°37' W 009°21'4 7.8
2018-Mar-26 09:29N 38°40' W 009°23'2 2.4
2018-Mar-26 08:46N 38°42' W 009°25'0 0.0
2018-Mar-26 08:28N 38°42' W 009°25'0 0.0
2018-Mar-26 07:43N 38°42' W 009°25'  
2018-Mar-23 23:32N 38°42' W 009°25'0 0.0
2018-Mar-23 23:08N 38°42' W 009°25'0 0.0
2018-Mar-23 22:44N 38°42' W 009°25'0 0.0
2018-Mar-23 22:14N 38°42' W 009°25'0 0.0
2018-Mar-23 21:56N 38°42' W 009°25'0 0.0
2018-Mar-22 16:44N 38°41' W 009°25'0 0.3
2018-Mar-22 16:18N 38°41' W 009°25'0 0.3
2018-Mar-22 15:52N 38°42' W 009°25'0 0.0
2018-Mar-22 15:19N 38°42' W 009°25'0 0.4
2018-Mar-22 14:57N 38°42' W 009°25'7 5.7
2018-Mar-22 13:48N 38°46' W 009°31'2 6.1
2018-Mar-22 13:30N 38°48' W 009°31'3 6.3
2018-Mar-22 13:00N 38°51' W 009°30'3 6.9
2018-Mar-22 12:30N 38°55' W 009°30'3 6.7
2018-Mar-22 12:00N 38°58' W 009°30'3 6.6
2018-Mar-22 11:30N 39°01' W 009°29'3 6.7
2018-Mar-22 11:00N 39°05' W 009°29'3 6.7
2018-Mar-22 10:30N 39°08' W 009°28'3 6.7
2018-Mar-22 10:00N 39°11' W 009°28'121 6.8
2018-Mar-21 16:09N 41°07' W 008°43'1 8.1
2018-Mar-21 16:00N 41°08' W 008°43'3 5.0
2018-Mar-21 15:28N 41°11' W 008°42'0 0.0
2018-Mar-21 14:55N 41°11' W 008°42'0 0.0
2018-Mar-20 18:59N 41°11' W 008°42'0 0.0
2018-Mar-20 18:27N 41°11' W 008°42'0 0.0
2018-Mar-20 17:57N 41°11' W 008°42'0 0.0
2018-Mar-20 17:30N 41°11' W 008°42'0 0.0
2018-Mar-20 11:17N 41°11' W 008°42'0 0.0
2018-Mar-20 07:48N 41°11' W 008°42'0 0.1
2018-Mar-20 07:30N 41°11' W 008°42'1 1.9
2018-Mar-20 06:59N 41°10' W 008°42'0 0.0
2018-Mar-20 06:30N 41°10' W 008°42'0 0.1
2018-Mar-20 05:58N 41°10' W 008°42'1 2.3
2018-Mar-20 05:30N 41°10' W 008°44'  

Dump ship's entire track history